createdAt,value
2022-10-25T00:00:54.915Z,88.93
2022-10-25T00:04:00.938Z,89.24
2022-10-25T00:07:08.057Z,89.55
2022-10-25T00:10:14.969Z,89.58
2022-10-25T00:13:21.575Z,90.12
2022-10-25T00:16:32.250Z,89.99
2022-10-25T00:19:38.202Z,89.41
2022-10-25T00:22:47.426Z,89.35
2022-10-25T00:25:53.725Z,89.45
2022-10-25T00:28:59.427Z,89.32
2022-10-25T00:32:05.801Z,88.09
2022-10-25T00:35:11.827Z,87.47
2022-10-25T00:38:17.151Z,86.31
2022-10-25T00:41:23.769Z,86.31
2022-10-25T00:44:57.418Z,86.68
2022-10-25T00:48:17.082Z,86.61
2022-10-25T00:51:22.995Z,86.87
2022-10-25T00:54:31.450Z,87.15
2022-10-25T00:57:57.502Z,87.54
2022-10-25T01:01:04.158Z,86.67
2022-10-25T01:04:04.309Z,85.64
2022-10-25T01:07:10.119Z,86.12
2022-10-25T01:10:15.785Z,86.79
2022-10-25T01:13:22.408Z,86.53
2022-10-25T01:16:42.154Z,86.30
2022-10-25T01:19:58.715Z,86.43
2022-10-25T01:23:50.369Z,86.34
2022-10-25T01:27:14.130Z,87.12
2022-10-25T01:30:40.415Z,86.08
2022-10-25T01:34:08.251Z,85.71
2022-10-25T01:37:47.937Z,85.57
2022-10-25T01:41:14.616Z,85.71
2022-10-25T01:44:33.278Z,86.17
2022-10-25T01:47:57.980Z,85.72
2022-10-25T01:51:05.355Z,85.36
2022-10-25T01:54:11.315Z,87.52
2022-10-25T01:57:50.440Z,87.67
2022-10-25T02:01:13.889Z,87.60
2022-10-25T02:04:20.782Z,86.37
2022-10-25T02:07:50.514Z,86.19
2022-10-25T02:11:09.324Z,86.10
2022-10-25T02:14:46.962Z,86.34
2022-10-25T02:17:54.579Z,86.45
2022-10-25T02:21:00.991Z,86.73
2022-10-25T02:24:07.596Z,86.58
2022-10-25T02:27:13.504Z,86.34
2022-10-25T02:30:20.347Z,86.08
2022-10-25T02:33:26.713Z,85.18
2022-10-25T02:36:39.015Z,85.86
2022-10-25T02:39:44.897Z,85.53
2022-10-25T02:42:51.218Z,85.69
2022-10-25T02:45:57.089Z,86.40
2022-10-25T02:49:03.311Z,86.67
2022-10-25T02:52:09.921Z,86.85
2022-10-25T02:55:16.448Z,87.08
2022-10-25T02:58:22.079Z,87.07
2022-10-25T03:01:29.370Z,87.64
2022-10-25T03:04:35.302Z,87.54
2022-10-25T03:07:40.568Z,87.25
2022-10-25T03:10:47.204Z,86.39
2022-10-25T03:13:46.980Z,86.44
2022-10-25T03:16:54.095Z,85.72
2022-10-25T03:20:01.257Z,85.56
2022-10-25T03:23:08.240Z,85.79
2022-10-25T03:26:14.843Z,85.89
2022-10-25T03:29:20.871Z,85.62
2022-10-25T03:32:26.755Z,86.68
2022-10-25T03:35:31.981Z,86.82
2022-10-25T03:38:37.627Z,86.46
2022-10-25T03:41:44.002Z,85.78
2022-10-25T03:44:48.925Z,85.48
2022-10-25T03:47:56.230Z,85.69
2022-10-25T03:51:01.812Z,85.58
2022-10-25T03:54:08.352Z,85.78
2022-10-25T03:57:15.350Z,84.97
2022-10-25T04:00:21.608Z,85.61
2022-10-25T04:03:26.478Z,85.86
2022-10-25T04:06:31.871Z,85.76
2022-10-25T04:09:37.481Z,86.79
2022-10-25T04:12:43.938Z,88.53
2022-10-25T04:15:48.874Z,89.08
2022-10-25T04:18:54.993Z,88.96
2022-10-25T04:22:01.454Z,89.12
2022-10-25T04:25:09.149Z,88.61
2022-10-25T04:28:15.268Z,89.36
2022-10-25T04:31:21.413Z,88.94
2022-10-25T04:34:26.838Z,89.64
2022-10-25T04:37:33.749Z,90.18
2022-10-25T04:40:39.562Z,89.31
2022-10-25T04:43:45.479Z,89.27
2022-10-25T04:46:51.018Z,88.97
2022-10-25T04:49:57.893Z,88.66
2022-10-25T04:53:04.992Z,89.35
2022-10-25T04:56:16.783Z,89.39
2022-10-25T04:59:24.165Z,89.11
2022-10-25T05:02:29.732Z,88.01
2022-10-25T05:05:34.898Z,88.56
2022-10-25T05:08:41.300Z,88.95
2022-10-25T05:11:46.922Z,88.91
2022-10-25T05:14:53.878Z,89.25
2022-10-25T05:18:00.755Z,88.72
2022-10-25T05:21:14.371Z,87.44
2022-10-25T05:24:21.072Z,88.31
2022-10-25T05:27:28.588Z,87.99
2022-10-25T05:30:33.958Z,88.33
2022-10-25T05:33:39.886Z,88.97
2022-10-25T05:36:45.114Z,89.06
2022-10-25T05:39:50.620Z,89.62
2022-10-25T05:42:56.213Z,90.85
2022-10-25T05:46:02.033Z,91.54
2022-10-25T05:49:07.911Z,91.80
2022-10-25T05:52:14.586Z,91.22
2022-10-25T05:55:15.354Z,90.94
2022-10-25T05:58:24.516Z,92.38
2022-10-25T06:01:24.581Z,92.37
2022-10-25T06:04:30.796Z,92.13
2022-10-25T06:07:36.544Z,93.20
2022-10-25T06:10:42.754Z,94.16
2022-10-25T06:13:48.115Z,93.99
2022-10-25T06:16:54.735Z,93.80
2022-10-25T06:20:01.208Z,93.05
2022-10-25T06:23:10.533Z,93.15
2022-10-25T06:26:19.920Z,92.88
2022-10-25T06:29:25.559Z,92.96
2022-10-25T06:32:32.332Z,92.71
2022-10-25T06:35:37.423Z,91.30
2022-10-25T06:38:42.375Z,91.13
2022-10-25T06:41:49.757Z,90.59
2022-10-25T06:44:54.877Z,90.39
2022-10-25T06:48:01.430Z,88.45
2022-10-25T06:51:18.494Z,89.56
2022-10-25T06:54:25.202Z,89.28
2022-10-25T06:57:30.704Z,88.96
2022-10-25T07:00:36.419Z,88.25
2022-10-25T07:03:42.462Z,87.73
2022-10-25T07:06:50.014Z,86.34
2022-10-25T07:09:57.512Z,85.31
2022-10-25T07:13:04.568Z,84.85
2022-10-25T07:16:11.038Z,84.66
2022-10-25T07:19:17.784Z,84.48
2022-10-25T07:22:24.500Z,84.15
2022-10-25T07:25:29.964Z,84.04
2022-10-25T07:28:28.876Z,83.63
2022-10-25T07:31:38.298Z,83.52
2022-10-25T07:34:46.293Z,83.53
2022-10-25T07:37:54.896Z,83.42
2022-10-25T07:41:00.813Z,83.21
2022-10-25T07:44:09.560Z,82.64
2022-10-25T07:47:16.707Z,82.89
2022-10-25T07:50:23.014Z,83.50
2022-10-25T07:53:29.116Z,82.83
2022-10-25T07:56:34.346Z,82.53
2022-10-25T07:59:41.393Z,83.10
2022-10-25T08:02:47.207Z,82.47
2022-10-25T08:05:54.301Z,82.56
2022-10-25T08:09:09.658Z,82.80
2022-10-25T08:12:08.371Z,81.76
2022-10-25T08:15:13.778Z,81.07
2022-10-25T08:18:20.068Z,80.85
2022-10-25T08:21:25.693Z,79.92
2022-10-25T08:24:32.986Z,79.58
2022-10-25T08:27:38.289Z,78.95
2022-10-25T08:30:43.541Z,79.13
2022-10-25T08:33:49.177Z,78.04
2022-10-25T08:36:54.530Z,77.44
2022-10-25T08:39:59.731Z,77.06
2022-10-25T08:43:23.752Z,75.89
2022-10-25T08:46:44.199Z,73.76
2022-10-25T08:50:05.063Z,73.62
2022-10-25T08:53:13.419Z,73.36
2022-10-25T08:56:18.435Z,72.40
2022-10-25T08:59:25.097Z,72.21
2022-10-25T09:02:34.690Z,72.23
2022-10-25T09:06:02.671Z,72.05
2022-10-25T09:09:32.452Z,70.99
2022-10-25T09:12:57.149Z,71.42
2022-10-25T09:16:26.740Z,72.25
2022-10-25T09:19:51.055Z,71.85
2022-10-25T09:23:03.602Z,70.78
2022-10-25T09:26:15.634Z,69.75
2022-10-25T09:29:46.357Z,68.44
2022-10-25T09:33:00.293Z,68.24
2022-10-25T09:36:12.335Z,66.98
2022-10-25T09:39:19.897Z,67.34
2022-10-25T09:42:36.535Z,65.59
2022-10-25T09:46:05.860Z,65.42
2022-10-25T09:49:27.097Z,65.57
2022-10-25T09:53:02.119Z,65.12
2022-10-25T09:56:06.932Z,64.90
2022-10-25T09:59:00.052Z,65.47
2022-10-25T10:02:05.202Z,65.68
2022-10-25T10:05:11.284Z,66.26
2022-10-25T10:08:16.862Z,66.28
2022-10-25T10:11:28.427Z,65.96
2022-10-25T10:14:54.561Z,66.20
2022-10-25T10:18:00.867Z,66.58
2022-10-25T10:21:18.690Z,67.38
2022-10-25T10:24:36.605Z,67.80
2022-10-25T10:27:41.547Z,68.01
2022-10-25T10:30:47.494Z,67.91
2022-10-25T10:33:54.145Z,67.80
2022-10-25T10:36:59.288Z,67.68
2022-10-25T10:40:25.843Z,68.00
2022-10-25T10:43:45.430Z,67.68
2022-10-25T10:46:44.202Z,67.57
2022-10-25T10:49:53.490Z,67.74
2022-10-25T10:53:00.154Z,67.16
2022-10-25T10:56:11.114Z,68.26
2022-10-25T10:59:16.510Z,68.98
2022-10-25T11:02:35.374Z,69.34
2022-10-25T11:05:51.685Z,69.04
2022-10-25T11:09:00.229Z,69.42
2022-10-25T11:12:21.878Z,68.55
2022-10-25T11:15:28.967Z,68.29
2022-10-25T11:18:51.793Z,71.62
2022-10-25T11:22:17.450Z,71.95
2022-10-25T11:25:32.708Z,71.54
2022-10-25T11:28:49.698Z,72.08
2022-10-25T11:32:27.501Z,72.21
2022-10-25T11:35:53.690Z,72.32
2022-10-25T11:39:22.757Z,72.27
2022-10-25T11:43:22.537Z,71.76
2022-10-25T11:46:47.444Z,71.82
2022-10-25T11:50:10.074Z,70.03
2022-10-25T11:53:53.488Z,69.78
2022-10-25T11:57:22.259Z,70.17
2022-10-25T12:00:39.156Z,69.93
2022-10-25T12:04:08.073Z,69.26
2022-10-25T12:07:25.021Z,70.24
2022-10-25T12:10:50.496Z,71.50
2022-10-25T12:14:04.136Z,72.35
2022-10-25T12:17:11.803Z,72.41
2022-10-25T12:20:19.355Z,72.86
2022-10-25T12:23:27.243Z,73.29
2022-10-25T12:26:47.053Z,73.50
2022-10-25T12:30:04.210Z,72.37
2022-10-25T12:33:37.265Z,72.65
2022-10-25T12:37:02.552Z,72.47
2022-10-25T12:40:08.529Z,72.25
2022-10-25T12:43:32.810Z,71.73
2022-10-25T12:46:56.838Z,71.49
2022-10-25T12:50:35.600Z,71.94
2022-10-25T12:54:14.496Z,71.89
2022-10-25T12:57:32.110Z,71.84
2022-10-25T13:00:31.268Z,72.09
2022-10-25T13:03:46.895Z,72.10
2022-10-25T13:06:53.039Z,72.29
2022-10-25T13:09:58.655Z,72.67
2022-10-25T13:13:24.687Z,72.39
2022-10-25T13:16:42.207Z,72.02
2022-10-25T13:20:00.033Z,71.90
2022-10-25T13:22:53.506Z,72.13
2022-10-25T13:26:06.471Z,72.03
2022-10-25T13:29:14.760Z,72.29
2022-10-25T13:32:21.136Z,72.21
2022-10-25T13:35:41.476Z,72.15
2022-10-25T13:38:51.050Z,72.70
2022-10-25T13:42:00.674Z,72.92
2022-10-25T13:45:22.037Z,72.83
2022-10-25T13:48:48.283Z,73.17
2022-10-25T13:51:54.310Z,73.82
2022-10-25T13:55:06.516Z,74.15
2022-10-25T13:58:13.377Z,74.27
2022-10-25T14:01:37.684Z,74.20
2022-10-25T14:04:44.599Z,74.62
2022-10-25T14:08:01.624Z,74.92
2022-10-25T14:11:06.965Z,75.14
2022-10-25T14:14:45.833Z,75.44
2022-10-25T14:17:57.468Z,76.39
2022-10-25T14:21:05.800Z,77.03
2022-10-25T14:24:11.425Z,77.63
2022-10-25T14:27:17.027Z,78.48
2022-10-25T14:30:43.904Z,78.69
2022-10-25T14:34:06.369Z,78.57
2022-10-25T14:37:12.406Z,78.10
2022-10-25T14:40:17.126Z,78.87
2022-10-25T14:43:42.808Z,79.48
2022-10-25T14:46:48.651Z,80.54
2022-10-25T14:49:54.414Z,81.10
2022-10-25T14:53:04.680Z,81.61
2022-10-25T14:56:18.849Z,81.90
2022-10-25T14:59:47.799Z,81.20
2022-10-25T15:02:53.961Z,81.24
2022-10-25T15:06:01.728Z,82.13
2022-10-25T15:09:41.685Z,82.03
2022-10-25T15:12:32.350Z,82.65
2022-10-25T15:15:57.681Z,82.86
2022-10-25T15:19:24.593Z,82.17
2022-10-25T15:22:31.087Z,81.42
2022-10-25T15:25:42.776Z,82.58
2022-10-25T15:28:56.892Z,82.69
2022-10-25T15:32:02.539Z,82.82
2022-10-25T15:35:14.466Z,82.94
2022-10-25T15:38:21.021Z,83.10
2022-10-25T15:41:27.444Z,82.33
2022-10-25T15:44:33.941Z,82.34
2022-10-25T15:47:47.483Z,81.62
2022-10-25T15:50:57.011Z,81.05
2022-10-25T15:54:02.559Z,81.67
2022-10-25T15:57:08.072Z,81.00
2022-10-25T16:00:13.192Z,81.15
2022-10-25T16:03:19.311Z,81.14
2022-10-25T16:06:27.780Z,81.23
2022-10-25T16:09:33.051Z,81.16
2022-10-25T16:12:43.195Z,81.32
2022-10-25T16:15:48.607Z,80.99
2022-10-25T16:18:54.861Z,80.53
2022-10-25T16:22:00.902Z,80.08
2022-10-25T16:25:06.365Z,80.44
2022-10-25T16:28:11.638Z,80.49
2022-10-25T16:31:17.190Z,80.56
2022-10-25T16:34:26.604Z,80.47
2022-10-25T16:37:34.900Z,80.61
2022-10-25T16:40:39.708Z,80.73
2022-10-25T16:43:48.441Z,80.54
2022-10-25T16:46:52.505Z,80.83
2022-10-25T16:49:58.838Z,80.51
2022-10-25T16:53:08.067Z,79.89
2022-10-25T16:56:15.510Z,79.89
2022-10-25T16:59:20.270Z,80.70
2022-10-25T17:02:32.292Z,80.61
2022-10-25T17:05:40.646Z,80.13
2022-10-25T17:08:45.849Z,79.89
2022-10-25T17:11:51.769Z,79.85
2022-10-25T17:14:57.524Z,79.27
2022-10-25T17:18:04.564Z,79.07
2022-10-25T17:21:12.737Z,79.37
2022-10-25T17:24:19.371Z,79.13
2022-10-25T17:27:25.425Z,78.86
2022-10-25T17:30:33.160Z,78.63
2022-10-25T17:33:39.044Z,78.10
2022-10-25T17:36:44.859Z,77.94
2022-10-25T17:39:50.776Z,78.20
2022-10-25T17:42:56.555Z,78.16
2022-10-25T17:46:01.857Z,78.61
2022-10-25T17:49:15.057Z,78.75
2022-10-25T17:52:20.049Z,78.05
2022-10-25T17:55:29.599Z,78.25
2022-10-25T17:58:33.712Z,77.68
2022-10-25T18:01:41.445Z,78.74
2022-10-25T18:05:08.418Z,79.03
2022-10-25T18:07:58.008Z,79.05
2022-10-25T18:11:04.419Z,78.98
2022-10-25T18:14:13.146Z,78.81
2022-10-25T18:17:19.729Z,77.52
2022-10-25T18:20:28.949Z,78.02
2022-10-25T18:23:38.098Z,78.05
2022-10-25T18:26:44.530Z,77.38
2022-10-25T18:29:50.243Z,75.63
2022-10-25T18:32:56.697Z,75.62
2022-10-25T18:36:01.850Z,75.92
2022-10-25T18:39:07.015Z,75.50
2022-10-25T18:42:12.918Z,76.11
2022-10-25T18:45:18.795Z,77.32
2022-10-25T18:48:26.481Z,76.64
2022-10-25T18:51:31.984Z,76.02
2022-10-25T18:54:38.652Z,77.12
2022-10-25T18:57:47.651Z,77.67
2022-10-25T19:00:53.319Z,77.99
2022-10-25T19:03:58.668Z,77.89
2022-10-25T19:07:07.269Z,77.94
2022-10-25T19:10:15.439Z,78.09
2022-10-25T19:13:24.032Z,78.33
2022-10-25T19:16:31.867Z,78.29
2022-10-25T19:19:39.292Z,78.69
2022-10-25T19:22:46.469Z,78.95
2022-10-25T19:25:52.863Z,79.17
2022-10-25T19:28:59.270Z,79.65
2022-10-25T19:32:05.610Z,79.58
2022-10-25T19:35:12.270Z,79.89
2022-10-25T19:38:17.285Z,79.56
2022-10-25T19:41:24.463Z,78.54
2022-10-25T19:44:30.753Z,78.65
2022-10-25T19:47:35.928Z,78.73
2022-10-25T19:50:41.664Z,79.64
2022-10-25T19:53:46.364Z,80.70
2022-10-25T19:56:53.173Z,81.33
2022-10-25T19:59:58.694Z,80.72
2022-10-25T20:03:06.431Z,80.74
2022-10-25T20:06:16.616Z,81.50
2022-10-25T20:09:21.602Z,81.89
2022-10-25T20:12:27.422Z,81.96
2022-10-25T20:15:33.962Z,82.37
2022-10-25T20:18:47.516Z,82.17
2022-10-25T20:21:53.747Z,81.79
2022-10-25T20:24:59.964Z,81.71
2022-10-25T20:28:07.463Z,81.22
2022-10-25T20:31:18.460Z,81.27
2022-10-25T20:34:17.586Z,81.10
2022-10-25T20:37:22.985Z,80.94
2022-10-25T20:40:30.775Z,80.71
2022-10-25T20:43:36.298Z,80.69
2022-10-25T20:46:41.990Z,80.86
2022-10-25T20:49:47.612Z,80.37
2022-10-25T20:53:10.616Z,79.73
2022-10-25T20:56:01.349Z,79.93
2022-10-25T20:59:07.328Z,79.51
2022-10-25T21:02:13.315Z,79.54
2022-10-25T21:05:14.721Z,79.78
2022-10-25T21:08:07.340Z,79.65
2022-10-25T21:11:15.720Z,78.41
2022-10-25T21:14:21.651Z,78.39
2022-10-25T21:17:28.493Z,79.24
2022-10-25T21:20:34.257Z,78.78
2022-10-25T21:23:41.252Z,79.16
2022-10-25T21:26:47.080Z,79.18
2022-10-25T21:29:52.784Z,79.86
2022-10-25T21:32:59.720Z,80.31
2022-10-25T21:36:05.778Z,80.61
2022-10-25T21:39:11.978Z,80.73
2022-10-25T21:42:17.871Z,80.93
2022-10-25T21:45:25.112Z,80.96
2022-10-25T21:48:30.264Z,81.09
2022-10-25T21:51:36.580Z,81.17
2022-10-25T21:54:42.418Z,81.38
2022-10-25T21:57:50.596Z,81.24
2022-10-25T22:00:58.559Z,81.34
2022-10-25T22:04:04.735Z,81.93
2022-10-25T22:07:09.558Z,81.85
2022-10-25T22:10:14.797Z,81.87
2022-10-25T22:13:21.505Z,81.94
2022-10-25T22:16:30.928Z,81.50
2022-10-25T22:19:36.808Z,82.13
2022-10-25T22:22:43.188Z,82.36
2022-10-25T22:25:49.098Z,82.45
2022-10-25T22:28:55.668Z,82.83
2022-10-25T22:32:00.572Z,83.04
2022-10-25T22:35:06.598Z,83.26
2022-10-25T22:38:13.932Z,84.13
2022-10-25T22:41:23.608Z,84.55
2022-10-25T22:44:29.609Z,84.58
2022-10-25T22:47:35.438Z,85.12
2022-10-25T22:50:34.618Z,85.99
2022-10-25T22:53:40.615Z,85.02
2022-10-25T22:56:46.632Z,85.59
2022-10-25T22:59:52.704Z,85.12
2022-10-25T23:02:59.645Z,84.68
2022-10-25T23:06:13.468Z,84.21
2022-10-25T23:09:22.939Z,84.29
2022-10-25T23:12:29.113Z,84.43
2022-10-25T23:15:34.447Z,85.33
2022-10-25T23:18:39.880Z,84.85
2022-10-25T23:21:44.980Z,85.22
2022-10-25T23:24:51.484Z,85.66
2022-10-25T23:27:57.130Z,85.07
2022-10-25T23:31:03.537Z,83.81
2022-10-25T23:34:04.940Z,83.97
2022-10-25T23:37:11.467Z,83.80
2022-10-25T23:40:17.045Z,83.40
2022-10-25T23:43:23.236Z,83.92
2022-10-25T23:46:28.608Z,84.49
2022-10-25T23:49:35.647Z,84.97
2022-10-25T23:52:41.126Z,85.52
2022-10-25T23:55:46.924Z,84.59
2022-10-25T23:58:52.460Z,84.95
